sensor_id;sensor_type;location;lat;lon;timestamp;P1;durP1;ratioP1;P2;durP2;ratioP2
10315;SDS011;5203;48.976;8.306;2022-08-18T00:02:01;6.30;;;5.80;;
10315;SDS011;5203;48.976;8.306;2022-08-18T00:04:33;6.18;;;5.70;;
10315;SDS011;5203;48.976;8.306;2022-08-18T00:07:07;6.78;;;6.00;;
10315;SDS011;5203;48.976;8.306;2022-08-18T00:09:35;6.57;;;6.07;;
10315;SDS011;5203;48.976;8.306;2022-08-18T00:12:04;6.45;;;6.05;;
10315;SDS011;5203;48.976;8.306;2022-08-18T00:14:31;6.55;;;6.05;;
10315;SDS011;5203;48.976;8.306;2022-08-18T00:16:57;6.70;;;6.20;;
10315;SDS011;5203;48.976;8.306;2022-08-18T00:19:24;6.90;;;6.40;;
10315;SDS011;5203;48.976;8.306;2022-08-18T00:21:50;7.18;;;6.57;;
10315;SDS011;5203;48.976;8.306;2022-08-18T00:24:16;7.00;;;6.35;;
10315;SDS011;5203;48.976;8.306;2022-08-18T00:26:41;6.93;;;6.43;;
10315;SDS011;5203;48.976;8.306;2022-08-18T00:29:07;6.95;;;6.43;;
10315;SDS011;5203;48.976;8.306;2022-08-18T00:31:33;7.18;;;6.57;;
10315;SDS011;5203;48.976;8.306;2022-08-18T00:33:59;6.30;;;5.90;;
10315;SDS011;5203;48.976;8.306;2022-08-18T00:36:25;6.90;;;6.30;;
10315;SDS011;5203;48.976;8.306;2022-08-18T00:38:51;6.65;;;6.05;;
10315;SDS011;5203;48.976;8.306;2022-08-18T00:41:17;7.32;;;6.70;;
10315;SDS011;5203;48.976;8.306;2022-08-18T00:43:48;6.70;;;6.20;;
10315;SDS011;5203;48.976;8.306;2022-08-18T00:46:16;7.47;;;6.93;;
10315;SDS011;5203;48.976;8.306;2022-08-18T00:48:45;7.45;;;6.80;;
10315;SDS011;5203;48.976;8.306;2022-08-18T00:53:59;7.60;;;7.00;;
10315;SDS011;5203;48.976;8.306;2022-08-18T00:56:40;7.13;;;6.53;;
10315;SDS011;5203;48.976;8.306;2022-08-18T01:01:41;7.07;;;6.38;;
10315;SDS011;5203;48.976;8.306;2022-08-18T01:04:10;6.68;;;6.18;;
10315;SDS011;5203;48.976;8.306;2022-08-18T01:07:01;7.03;;;6.53;;
10315;SDS011;5203;48.976;8.306;2022-08-18T01:09:42;7.03;;;6.43;;
10315;SDS011;5203;48.976;8.306;2022-08-18T01:12:08;7.18;;;6.57;;
10315;SDS011;5203;48.976;8.306;2022-08-18T01:14:33;7.30;;;6.60;;
10315;SDS011;5203;48.976;8.306;2022-08-18T01:16:59;7.47;;;6.78;;
10315;SDS011;5203;48.976;8.306;2022-08-18T01:19:43;6.25;;;5.75;;
10315;SDS011;5203;48.976;8.306;2022-08-18T01:22:28;7.20;;;6.60;;
10315;SDS011;5203;48.976;8.306;2022-08-18T01:25:02;7.10;;;6.60;;
10315;SDS011;5203;48.976;8.306;2022-08-18T01:27:49;7.60;;;6.97;;
10315;SDS011;5203;48.976;8.306;2022-08-18T01:30:15;7.32;;;6.82;;
10315;SDS011;5203;48.976;8.306;2022-08-18T01:32:43;6.85;;;6.30;;
10315;SDS011;5203;48.976;8.306;2022-08-18T01:35:10;7.05;;;6.45;;
10315;SDS011;5203;48.976;8.306;2022-08-18T01:37:38;7.38;;;6.85;;
10315;SDS011;5203;48.976;8.306;2022-08-18T01:40:05;6.97;;;6.47;;
10315;SDS011;5203;48.976;8.306;2022-08-18T01:42:33;7.60;;;7.00;;
10315;SDS011;5203;48.976;8.306;2022-08-18T01:45:00;7.15;;;6.65;;
10315;SDS011;5203;48.976;8.306;2022-08-18T01:47:30;6.80;;;6.30;;
10315;SDS011;5203;48.976;8.306;2022-08-18T01:49:57;7.25;;;6.65;;
10315;SDS011;5203;48.976;8.306;2022-08-18T01:52:24;7.70;;;7.10;;
10315;SDS011;5203;48.976;8.306;2022-08-18T01:54:50;6.90;;;6.40;;
10315;SDS011;5203;48.976;8.306;2022-08-18T01:57:16;7.50;;;6.90;;
10315;SDS011;5203;48.976;8.306;2022-08-18T01:59:45;7.07;;;6.20;;
10315;SDS011;5203;48.976;8.306;2022-08-18T02:02:11;7.25;;;6.75;;
10315;SDS011;5203;48.976;8.306;2022-08-18T02:04:41;7.75;;;7.15;;
10315;SDS011;5203;48.976;8.306;2022-08-18T02:07:09;7.60;;;7.10;;
10315;SDS011;5203;48.976;8.306;2022-08-18T02:09:36;7.43;;;6.82;;
10315;SDS011;5203;48.976;8.306;2022-08-18T02:12:03;7.80;;;7.18;;
10315;SDS011;5203;48.976;8.306;2022-08-18T02:14:31;7.93;;;7.28;;
10315;SDS011;5203;48.976;8.306;2022-08-18T02:16:57;8.25;;;7.00;;
10315;SDS011;5203;48.976;8.306;2022-08-18T02:19:25;7.18;;;6.68;;
10315;SDS011;5203;48.976;8.306;2022-08-18T02:21:50;7.20;;;6.60;;
10315;SDS011;5203;48.976;8.306;2022-08-18T02:24:17;7.70;;;7.00;;
10315;SDS011;5203;48.976;8.306;2022-08-18T02:26:43;7.03;;;6.53;;
10315;SDS011;5203;48.976;8.306;2022-08-18T02:29:09;7.22;;;6.70;;
10315;SDS011;5203;48.976;8.306;2022-08-18T02:31:35;7.85;;;7.35;;
10315;SDS011;5203;48.976;8.306;2022-08-18T02:34:00;7.38;;;6.85;;
10315;SDS011;5203;48.976;8.306;2022-08-18T02:36:26;7.32;;;6.80;;
10315;SDS011;5203;48.976;8.306;2022-08-18T02:38:52;6.60;;;6.10;;
10315;SDS011;5203;48.976;8.306;2022-08-18T02:41:18;7.20;;;6.60;;
10315;SDS011;5203;48.976;8.306;2022-08-18T02:43:44;7.60;;;7.00;;
10315;SDS011;5203;48.976;8.306;2022-08-18T02:46:12;7.47;;;6.97;;
10315;SDS011;5203;48.976;8.306;2022-08-18T02:48:38;6.60;;;6.20;;
10315;SDS011;5203;48.976;8.306;2022-08-18T02:51:11;7.43;;;6.93;;
10315;SDS011;5203;48.976;8.306;2022-08-18T02:53:39;8.02;;;7.43;;
10315;SDS011;5203;48.976;8.306;2022-08-18T02:56:07;7.93;;;7.22;;
10315;SDS011;5203;48.976;8.306;2022-08-18T02:58:50;8.45;;;7.30;;
10315;SDS011;5203;48.976;8.306;2022-08-18T03:01:22;7.40;;;6.90;;
10315;SDS011;5203;48.976;8.306;2022-08-18T03:03:50;7.85;;;7.25;;
10315;SDS011;5203;48.976;8.306;2022-08-18T03:06:17;8.65;;;7.85;;
10315;SDS011;5203;48.976;8.306;2022-08-18T03:08:43;8.98;;;7.68;;
10315;SDS011;5203;48.976;8.306;2022-08-18T03:11:13;8.50;;;7.80;;
10315;SDS011;5203;48.976;8.306;2022-08-18T03:13:40;7.93;;;7.32;;
10315;SDS011;5203;48.976;8.306;2022-08-18T03:16:06;8.48;;;7.78;;
10315;SDS011;5203;48.976;8.306;2022-08-18T03:18:32;7.93;;;7.32;;
10315;SDS011;5203;48.976;8.306;2022-08-18T03:21:03;8.15;;;7.55;;
10315;SDS011;5203;48.976;8.306;2022-08-18T03:23:33;8.18;;;7.57;;
10315;SDS011;5203;48.976;8.306;2022-08-18T03:26:00;9.07;;;8.38;;
10315;SDS011;5203;48.976;8.306;2022-08-18T03:28:26;8.27;;;7.68;;
10315;SDS011;5203;48.976;8.306;2022-08-18T03:30:53;9.07;;;8.38;;
10315;SDS011;5203;48.976;8.306;2022-08-18T03:33:19;8.35;;;7.75;;
10315;SDS011;5203;48.976;8.306;2022-08-18T03:35:45;8.90;;;8.10;;
10315;SDS011;5203;48.976;8.306;2022-08-18T03:38:11;8.65;;;7.95;;
10315;SDS011;5203;48.976;8.306;2022-08-18T03:40:37;9.02;;;8.32;;
10315;SDS011;5203;48.976;8.306;2022-08-18T03:43:03;8.70;;;8.07;;
10315;SDS011;5203;48.976;8.306;2022-08-18T03:45:33;8.63;;;8.02;;
10315;SDS011;5203;48.976;8.306;2022-08-18T03:47:59;8.90;;;8.13;;
10315;SDS011;5203;48.976;8.306;2022-08-18T03:50:26;7.80;;;7.30;;
10315;SDS011;5203;48.976;8.306;2022-08-18T03:52:53;8.45;;;7.82;;
10315;SDS011;5203;48.976;8.306;2022-08-18T03:55:23;9.05;;;8.30;;
10315;SDS011;5203;48.976;8.306;2022-08-18T03:57:51;8.85;;;8.05;;
10315;SDS011;5203;48.976;8.306;2022-08-18T04:00:19;9.10;;;8.35;;
10315;SDS011;5203;48.976;8.306;2022-08-18T04:02:45;8.30;;;7.70;;
10315;SDS011;5203;48.976;8.306;2022-08-18T04:05:11;8.98;;;8.27;;
10315;SDS011;5203;48.976;8.306;2022-08-18T04:07:38;8.50;;;7.85;;
10315;SDS011;5203;48.976;8.306;2022-08-18T04:10:04;9.10;;;8.30;;
10315;SDS011;5203;48.976;8.306;2022-08-18T04:12:30;8.68;;;7.97;;
10315;SDS011;5203;48.976;8.306;2022-08-18T04:14:56;8.70;;;8.02;;
10315;SDS011;5203;48.976;8.306;2022-08-18T04:17:22;8.25;;;7.65;;
10315;SDS011;5203;48.976;8.306;2022-08-18T04:19:49;8.35;;;7.65;;
10315;SDS011;5203;48.976;8.306;2022-08-18T04:22:18;8.65;;;7.95;;
10315;SDS011;5203;48.976;8.306;2022-08-18T04:24:44;8.55;;;7.80;;
10315;SDS011;5203;48.976;8.306;2022-08-18T04:27:10;8.18;;;7.57;;
10315;SDS011;5203;48.976;8.306;2022-08-18T04:29:36;9.00;;;8.15;;
10315;SDS011;5203;48.976;8.306;2022-08-18T04:32:02;8.15;;;7.47;;
10315;SDS011;5203;48.976;8.306;2022-08-18T04:34:29;8.98;;;8.27;;
10315;SDS011;5203;48.976;8.306;2022-08-18T04:36:57;8.13;;;7.53;;
10315;SDS011;5203;48.976;8.306;2022-08-18T04:39:23;8.73;;;7.88;;
10315;SDS011;5203;48.976;8.306;2022-08-18T04:41:50;9.50;;;8.55;;
10315;SDS011;5203;48.976;8.306;2022-08-18T04:44:16;9.43;;;8.73;;
10315;SDS011;5203;48.976;8.306;2022-08-18T04:46:46;8.38;;;7.78;;
10315;SDS011;5203;48.976;8.306;2022-08-18T04:49:16;8.55;;;7.85;;
10315;SDS011;5203;48.976;8.306;2022-08-18T04:51:43;8.18;;;7.57;;
10315;SDS011;5203;48.976;8.306;2022-08-18T04:54:31;8.13;;;7.53;;
10315;SDS011;5203;48.976;8.306;2022-08-18T04:57:05;8.88;;;8.18;;
10315;SDS011;5203;48.976;8.306;2022-08-18T04:59:36;9.10;;;8.50;;
10315;SDS011;5203;48.976;8.306;2022-08-18T05:02:04;8.20;;;7.60;;
10315;SDS011;5203;48.976;8.306;2022-08-18T05:04:32;9.15;;;8.40;;
10315;SDS011;5203;48.976;8.306;2022-08-18T05:07:03;8.95;;;8.15;;
10315;SDS011;5203;48.976;8.306;2022-08-18T05:09:30;8.18;;;7.57;;
10315;SDS011;5203;48.976;8.306;2022-08-18T05:11:56;8.95;;;8.15;;
10315;SDS011;5203;48.976;8.306;2022-08-18T05:14:21;8.00;;;7.40;;
10315;SDS011;5203;48.976;8.306;2022-08-18T05:16:47;8.68;;;7.97;;
10315;SDS011;5203;48.976;8.306;2022-08-18T05:19:13;8.07;;;7.47;;
10315;SDS011;5203;48.976;8.306;2022-08-18T05:21:41;8.98;;;8.27;;
10315;SDS011;5203;48.976;8.306;2022-08-18T05:24:07;8.60;;;7.97;;
10315;SDS011;5203;48.976;8.306;2022-08-18T05:26:34;8.45;;;7.72;;
10315;SDS011;5203;48.976;8.306;2022-08-18T05:29:00;8.63;;;7.82;;
10315;SDS011;5203;48.976;8.306;2022-08-18T05:31:27;8.80;;;8.10;;
10315;SDS011;5203;48.976;8.306;2022-08-18T05:33:54;9.15;;;8.35;;
10315;SDS011;5203;48.976;8.306;2022-08-18T05:41:48;8.82;;;8.13;;
10315;SDS011;5203;48.976;8.306;2022-08-18T05:44:26;8.35;;;7.72;;
10315;SDS011;5203;48.976;8.306;2022-08-18T05:47:02;8.75;;;8.05;;
10315;SDS011;5203;48.976;8.306;2022-08-18T05:49:35;8.55;;;7.95;;
10315;SDS011;5203;48.976;8.306;2022-08-18T05:52:03;8.98;;;8.27;;
10315;SDS011;5203;48.976;8.306;2022-08-18T05:54:41;9.00;;;8.30;;
10315;SDS011;5203;48.976;8.306;2022-08-18T05:57:31;9.35;;;8.45;;
10315;SDS011;5203;48.976;8.306;2022-08-18T06:00:02;8.65;;;7.82;;
10315;SDS011;5203;48.976;8.306;2022-08-18T06:02:34;9.00;;;8.23;;
10315;SDS011;5203;48.976;8.306;2022-08-18T06:05:12;9.35;;;8.65;;
10315;SDS011;5203;48.976;8.306;2022-08-18T06:10:16;9.13;;;8.32;;
10315;SDS011;5203;48.976;8.306;2022-08-18T06:12:44;8.45;;;7.75;;
10315;SDS011;5203;48.976;8.306;2022-08-18T06:15:28;8.82;;;8.10;;
10315;SDS011;5203;48.976;8.306;2022-08-18T06:23:26;9.18;;;8.35;;
10315;SDS011;5203;48.976;8.306;2022-08-18T06:28:41;8.95;;;8.15;;
10315;SDS011;5203;48.976;8.306;2022-08-18T06:31:25;9.93;;;8.20;;
10315;SDS011;5203;48.976;8.306;2022-08-18T06:34:16;9.57;;;8.70;;
10315;SDS011;5203;48.976;8.306;2022-08-18T06:39:31;9.65;;;8.65;;
10315;SDS011;5203;48.976;8.306;2022-08-18T06:42:03;8.75;;;8.10;;
10315;SDS011;5203;48.976;8.306;2022-08-18T06:44:40;8.85;;;7.97;;
10315;SDS011;5203;48.976;8.306;2022-08-18T06:55:07;8.90;;;8.15;;
10315;SDS011;5203;48.976;8.306;2022-08-18T06:57:38;8.50;;;7.72;;
10315;SDS011;5203;48.976;8.306;2022-08-18T07:08:33;9.10;;;8.38;;
10315;SDS011;5203;48.976;8.306;2022-08-18T07:11:13;9.15;;;8.35;;
10315;SDS011;5203;48.976;8.306;2022-08-18T07:13:42;9.70;;;9.00;;
10315;SDS011;5203;48.976;8.306;2022-08-18T07:16:17;9.55;;;8.85;;
10315;SDS011;5203;48.976;8.306;2022-08-18T07:19:10;9.50;;;8.70;;
10315;SDS011;5203;48.976;8.306;2022-08-18T07:21:38;9.93;;;9.02;;
10315;SDS011;5203;48.976;8.306;2022-08-18T07:24:08;9.00;;;8.20;;
10315;SDS011;5203;48.976;8.306;2022-08-18T07:26:59;9.30;;;8.50;;
10315;SDS011;5203;48.976;8.306;2022-08-18T07:29:28;9.98;;;9.07;;
10315;SDS011;5203;48.976;8.306;2022-08-18T07:31:58;8.18;;;7.57;;
10315;SDS011;5203;48.976;8.306;2022-08-18T07:34:30;8.80;;;8.13;;
10315;SDS011;5203;48.976;8.306;2022-08-18T07:39:54;8.93;;;8.13;;
10315;SDS011;5203;48.976;8.306;2022-08-18T07:45:32;9.55;;;8.70;;
10315;SDS011;5203;48.976;8.306;2022-08-18T07:48:20;9.35;;;8.55;;
10315;SDS011;5203;48.976;8.306;2022-08-18T07:50:55;8.93;;;8.23;;
10315;SDS011;5203;48.976;8.306;2022-08-18T07:59:37;9.25;;;8.55;;
10315;SDS011;5203;48.976;8.306;2022-08-18T08:10:31;9.52;;;8.63;;
10315;SDS011;5203;48.976;8.306;2022-08-18T08:16:19;9.30;;;8.52;;
10315;SDS011;5203;48.976;8.306;2022-08-18T08:19:49;9.57;;;8.88;;
10315;SDS011;5203;48.976;8.306;2022-08-18T08:22:05;9.80;;;9.00;;
10315;SDS011;5203;48.976;8.306;2022-08-18T08:30:24;8.38;;;7.78;;
10315;SDS011;5203;48.976;8.306;2022-08-18T08:32:59;8.25;;;7.57;;
10315;SDS011;5203;48.976;8.306;2022-08-18T08:35:39;8.63;;;7.88;;
10315;SDS011;5203;48.976;8.306;2022-08-18T08:38:26;8.70;;;8.10;;
10315;SDS011;5203;48.976;8.306;2022-08-18T08:41:08;9.30;;;8.50;;
10315;SDS011;5203;48.976;8.306;2022-08-18T08:43:44;9.77;;;8.88;;
10315;SDS011;5203;48.976;8.306;2022-08-18T08:46:35;10.70;;;9.80;;
10315;SDS011;5203;48.976;8.306;2022-08-18T08:52:25;10.98;;;10.00;;
10315;SDS011;5203;48.976;8.306;2022-08-18T08:57:49;10.80;;;9.90;;
10315;SDS011;5203;48.976;8.306;2022-08-18T09:00:22;10.15;;;9.32;;
10315;SDS011;5203;48.976;8.306;2022-08-18T09:02:53;10.15;;;9.35;;
10315;SDS011;5203;48.976;8.306;2022-08-18T09:05:27;10.35;;;9.38;;
10315;SDS011;5203;48.976;8.306;2022-08-18T09:10:49;11.57;;;10.68;;
10315;SDS011;5203;48.976;8.306;2022-08-18T09:28:13;12.70;;;11.70;;
10315;SDS011;5203;48.976;8.306;2022-08-18T09:36:02;12.55;;;11.50;;
10315;SDS011;5203;48.976;8.306;2022-08-18T09:38:33;13.02;;;12.10;;
10315;SDS011;5203;48.976;8.306;2022-08-18T09:41:34;12.75;;;11.77;;
10315;SDS011;5203;48.976;8.306;2022-08-18T09:44:11;14.63;;;13.43;;
10315;SDS011;5203;48.976;8.306;2022-08-18T09:51:55;14.57;;;13.57;;
10315;SDS011;5203;48.976;8.306;2022-08-18T09:54:29;15.07;;;13.93;;
10315;SDS011;5203;48.976;8.306;2022-08-18T10:01:57;15.32;;;14.15;;
10315;SDS011;5203;48.976;8.306;2022-08-18T10:12:51;15.48;;;14.35;;
10315;SDS011;5203;48.976;8.306;2022-08-18T10:21:14;13.57;;;12.52;;
10315;SDS011;5203;48.976;8.306;2022-08-18T10:29:07;15.18;;;13.98;;
10315;SDS011;5203;48.976;8.306;2022-08-18T10:37:29;16.73;;;15.43;;
10315;SDS011;5203;48.976;8.306;2022-08-18T10:42:38;16.10;;;14.90;;
10315;SDS011;5203;48.976;8.306;2022-08-18T10:47:43;16.45;;;15.15;;
10315;SDS011;5203;48.976;8.306;2022-08-18T10:50:21;16.42;;;15.23;;
10315;SDS011;5203;48.976;8.306;2022-08-18T10:58:23;18.13;;;16.60;;
10315;SDS011;5203;48.976;8.306;2022-08-18T11:01:07;17.55;;;16.17;;
10315;SDS011;5203;48.976;8.306;2022-08-18T11:04:19;16.58;;;15.18;;
10315;SDS011;5203;48.976;8.306;2022-08-18T11:06:50;16.92;;;15.63;;
10315;SDS011;5203;48.976;8.306;2022-08-18T11:09:26;15.57;;;14.38;;
10315;SDS011;5203;48.976;8.306;2022-08-18T11:11:54;14.80;;;13.70;;
10315;SDS011;5203;48.976;8.306;2022-08-18T11:17:34;16.40;;;15.20;;
10315;SDS011;5203;48.976;8.306;2022-08-18T11:20:09;19.83;;;17.75;;
10315;SDS011;5203;48.976;8.306;2022-08-18T11:22:38;19.50;;;17.95;;
10315;SDS011;5203;48.976;8.306;2022-08-18T11:25:26;21.13;;;19.50;;
10315;SDS011;5203;48.976;8.306;2022-08-18T11:27:54;19.83;;;18.08;;
10315;SDS011;5203;48.976;8.306;2022-08-18T11:30:20;22.23;;;20.50;;
10315;SDS011;5203;48.976;8.306;2022-08-18T11:32:50;23.67;;;21.83;;
10315;SDS011;5203;48.976;8.306;2022-08-18T11:35:18;20.52;;;18.85;;
10315;SDS011;5203;48.976;8.306;2022-08-18T11:40:30;20.58;;;18.85;;
10315;SDS011;5203;48.976;8.306;2022-08-18T11:43:05;19.25;;;17.75;;
10315;SDS011;5203;48.976;8.306;2022-08-18T11:58:43;20.00;;;18.30;;
10315;SDS011;5203;48.976;8.306;2022-08-18T12:01:26;20.95;;;19.25;;
10315;SDS011;5203;48.976;8.306;2022-08-18T12:06:37;19.85;;;18.25;;
10315;SDS011;5203;48.976;8.306;2022-08-18T12:09:30;20.40;;;18.80;;
10315;SDS011;5203;48.976;8.306;2022-08-18T12:12:18;20.33;;;18.83;;
10315;SDS011;5203;48.976;8.306;2022-08-18T12:17:36;21.00;;;19.33;;
10315;SDS011;5203;48.976;8.306;2022-08-18T12:20:02;21.75;;;20.05;;
10315;SDS011;5203;48.976;8.306;2022-08-18T12:22:32;20.85;;;19.15;;
10315;SDS011;5203;48.976;8.306;2022-08-18T12:24:58;20.20;;;18.67;;
10315;SDS011;5203;48.976;8.306;2022-08-18T12:27:25;18.00;;;16.70;;
10315;SDS011;5203;48.976;8.306;2022-08-18T12:29:53;19.73;;;18.23;;
10315;SDS011;5203;48.976;8.306;2022-08-18T12:32:21;18.98;;;17.48;;
10315;SDS011;5203;48.976;8.306;2022-08-18T12:34:48;19.88;;;18.38;;
10315;SDS011;5203;48.976;8.306;2022-08-18T12:37:18;18.60;;;17.00;;
10315;SDS011;5203;48.976;8.306;2022-08-18T12:39:45;18.15;;;16.83;;
10315;SDS011;5203;48.976;8.306;2022-08-18T12:42:11;17.92;;;16.63;;
10315;SDS011;5203;48.976;8.306;2022-08-18T12:44:36;19.92;;;18.42;;
10315;SDS011;5203;48.976;8.306;2022-08-18T12:47:05;19.10;;;17.75;;
10315;SDS011;5203;48.976;8.306;2022-08-18T12:49:38;18.40;;;16.98;;
10315;SDS011;5203;48.976;8.306;2022-08-18T12:52:04;19.73;;;18.00;;
10315;SDS011;5203;48.976;8.306;2022-08-18T12:54:30;20.05;;;18.35;;
10315;SDS011;5203;48.976;8.306;2022-08-18T12:56:57;16.63;;;15.43;;
10315;SDS011;5203;48.976;8.306;2022-08-18T12:59:23;16.85;;;15.55;;
10315;SDS011;5203;48.976;8.306;2022-08-18T13:01:50;17.15;;;15.85;;
10315;SDS011;5203;48.976;8.306;2022-08-18T13:04:17;20.52;;;18.90;;
10315;SDS011;5203;48.976;8.306;2022-08-18T13:06:50;17.50;;;16.10;;
10315;SDS011;5203;48.976;8.306;2022-08-18T13:09:19;17.83;;;16.52;;
10315;SDS011;5203;48.976;8.306;2022-08-18T13:11:45;18.45;;;17.13;;
10315;SDS011;5203;48.976;8.306;2022-08-18T13:14:11;19.52;;;18.00;;
10315;SDS011;5203;48.976;8.306;2022-08-18T13:16:40;19.23;;;17.65;;
10315;SDS011;5203;48.976;8.306;2022-08-18T13:19:08;18.15;;;16.60;;
10315;SDS011;5203;48.976;8.306;2022-08-18T13:21:35;17.85;;;16.55;;
10315;SDS011;5203;48.976;8.306;2022-08-18T13:24:01;17.60;;;16.17;;
10315;SDS011;5203;48.976;8.306;2022-08-18T13:26:32;18.20;;;16.80;;
10315;SDS011;5203;48.976;8.306;2022-08-18T13:29:00;16.10;;;14.90;;
10315;SDS011;5203;48.976;8.306;2022-08-18T13:31:26;16.50;;;15.35;;
10315;SDS011;5203;48.976;8.306;2022-08-18T13:33:53;15.88;;;14.73;;
10315;SDS011;5203;48.976;8.306;2022-08-18T13:36:23;16.02;;;14.90;;
10315;SDS011;5203;48.976;8.306;2022-08-18T13:38:50;17.90;;;16.70;;
10315;SDS011;5203;48.976;8.306;2022-08-18T13:41:18;15.70;;;14.60;;
10315;SDS011;5203;48.976;8.306;2022-08-18T13:43:45;15.18;;;14.18;;
10315;SDS011;5203;48.976;8.306;2022-08-18T13:46:16;15.50;;;14.45;;
10315;SDS011;5203;48.976;8.306;2022-08-18T13:48:43;17.13;;;15.93;;
10315;SDS011;5203;48.976;8.306;2022-08-18T13:51:12;16.08;;;15.00;;
10315;SDS011;5203;48.976;8.306;2022-08-18T13:53:45;15.00;;;13.93;;
10315;SDS011;5203;48.976;8.306;2022-08-18T13:56:11;17.17;;;15.98;;
10315;SDS011;5203;48.976;8.306;2022-08-18T13:58:36;15.52;;;14.25;;
10315;SDS011;5203;48.976;8.306;2022-08-18T14:01:04;15.82;;;14.63;;
10315;SDS011;5203;48.976;8.306;2022-08-18T14:03:31;16.55;;;15.55;;
10315;SDS011;5203;48.976;8.306;2022-08-18T14:05:59;15.65;;;14.65;;
10315;SDS011;5203;48.976;8.306;2022-08-18T14:08:26;16.35;;;15.15;;
10315;SDS011;5203;48.976;8.306;2022-08-18T14:10:53;14.52;;;13.52;;
10315;SDS011;5203;48.976;8.306;2022-08-18T14:13:22;15.13;;;14.02;;
10315;SDS011;5203;48.976;8.306;2022-08-18T14:15:51;15.35;;;14.23;;
10315;SDS011;5203;48.976;8.306;2022-08-18T14:18:18;15.13;;;13.93;;
10315;SDS011;5203;48.976;8.306;2022-08-18T14:20:44;14.80;;;13.50;;
10315;SDS011;5203;48.976;8.306;2022-08-18T14:23:28;15.25;;;14.15;;
10315;SDS011;5203;48.976;8.306;2022-08-18T14:26:12;14.98;;;13.95;;
10315;SDS011;5203;48.976;8.306;2022-08-18T14:28:56;13.90;;;13.00;;
10315;SDS011;5203;48.976;8.306;2022-08-18T14:31:22;14.73;;;13.63;;
10315;SDS011;5203;48.976;8.306;2022-08-18T14:33:48;14.88;;;13.68;;
10315;SDS011;5203;48.976;8.306;2022-08-18T14:36:14;13.15;;;12.30;;
10315;SDS011;5203;48.976;8.306;2022-08-18T14:38:40;13.45;;;12.45;;
10315;SDS011;5203;48.976;8.306;2022-08-18T14:41:06;12.57;;;11.68;;
10315;SDS011;5203;48.976;8.306;2022-08-18T14:43:34;12.38;;;11.40;;
10315;SDS011;5203;48.976;8.306;2022-08-18T14:46:01;13.65;;;12.52;;
10315;SDS011;5203;48.976;8.306;2022-08-18T14:48:27;13.25;;;12.25;;
10315;SDS011;5203;48.976;8.306;2022-08-18T14:50:54;11.25;;;10.35;;
10315;SDS011;5203;48.976;8.306;2022-08-18T14:53:24;12.13;;;11.23;;
10315;SDS011;5203;48.976;8.306;2022-08-18T14:55:52;11.95;;;11.23;;
10315;SDS011;5203;48.976;8.306;2022-08-18T14:58:23;11.48;;;10.70;;
10315;SDS011;5203;48.976;8.306;2022-08-18T15:00:51;12.40;;;11.48;;
10315;SDS011;5203;48.976;8.306;2022-08-18T15:03:18;12.48;;;11.57;;
10315;SDS011;5203;48.976;8.306;2022-08-18T15:05:45;11.90;;;11.02;;
10315;SDS011;5203;48.976;8.306;2022-08-18T15:08:10;12.73;;;11.68;;
10315;SDS011;5203;48.976;8.306;2022-08-18T15:10:36;12.63;;;11.60;;
10315;SDS011;5203;48.976;8.306;2022-08-18T15:13:02;12.93;;;12.05;;
10315;SDS011;5203;48.976;8.306;2022-08-18T15:15:28;12.10;;;11.25;;
10315;SDS011;5203;48.976;8.306;2022-08-18T15:17:55;12.95;;;11.85;;
10315;SDS011;5203;48.976;8.306;2022-08-18T15:20:22;12.77;;;11.88;;
10315;SDS011;5203;48.976;8.306;2022-08-18T15:22:49;12.63;;;11.73;;
10315;SDS011;5203;48.976;8.306;2022-08-18T15:25:33;12.05;;;11.18;;
10315;SDS011;5203;48.976;8.306;2022-08-18T15:28:21;11.32;;;10.63;;
10315;SDS011;5203;48.976;8.306;2022-08-18T15:30:48;13.05;;;12.15;;
10315;SDS011;5203;48.976;8.306;2022-08-18T15:33:15;12.95;;;11.95;;
10315;SDS011;5203;48.976;8.306;2022-08-18T15:35:43;11.93;;;11.13;;
10315;SDS011;5203;48.976;8.306;2022-08-18T15:38:10;12.18;;;11.40;;
10315;SDS011;5203;48.976;8.306;2022-08-18T15:40:37;11.95;;;11.05;;
10315;SDS011;5203;48.976;8.306;2022-08-18T15:43:10;11.50;;;10.60;;
10315;SDS011;5203;48.976;8.306;2022-08-18T15:45:38;11.43;;;10.57;;
10315;SDS011;5203;48.976;8.306;2022-08-18T15:48:07;12.93;;;12.02;;
10315;SDS011;5203;48.976;8.306;2022-08-18T15:50:35;12.45;;;11.65;;
10315;SDS011;5203;48.976;8.306;2022-08-18T15:53:02;11.68;;;10.80;;
10315;SDS011;5203;48.976;8.306;2022-08-18T15:55:30;11.52;;;10.82;;
10315;SDS011;5203;48.976;8.306;2022-08-18T15:57:57;11.45;;;10.55;;
10315;SDS011;5203;48.976;8.306;2022-08-18T16:00:24;12.20;;;11.25;;
10315;SDS011;5203;48.976;8.306;2022-08-18T16:02:55;11.68;;;10.88;;
10315;SDS011;5203;48.976;8.306;2022-08-18T16:05:29;12.50;;;11.40;;
10315;SDS011;5203;48.976;8.306;2022-08-18T16:07:58;12.20;;;11.40;;
10315;SDS011;5203;48.976;8.306;2022-08-18T16:10:25;11.88;;;11.13;;
10315;SDS011;5203;48.976;8.306;2022-08-18T16:12:53;12.10;;;11.30;;
10315;SDS011;5203;48.976;8.306;2022-08-18T16:15:22;13.75;;;12.85;;
10315;SDS011;5203;48.976;8.306;2022-08-18T16:17:49;12.43;;;11.60;;
10315;SDS011;5203;48.976;8.306;2022-08-18T16:20:16;13.85;;;12.85;;
10315;SDS011;5203;48.976;8.306;2022-08-18T16:22:43;12.68;;;11.88;;
10315;SDS011;5203;48.976;8.306;2022-08-18T16:25:09;13.20;;;12.20;;
10315;SDS011;5203;48.976;8.306;2022-08-18T16:27:35;12.93;;;12.10;;
10315;SDS011;5203;48.976;8.306;2022-08-18T16:30:05;14.07;;;13.07;;
10315;SDS011;5203;48.976;8.306;2022-08-18T16:32:36;14.43;;;13.18;;
10315;SDS011;5203;48.976;8.306;2022-08-18T16:35:02;12.48;;;11.57;;
10315;SDS011;5203;48.976;8.306;2022-08-18T16:37:28;13.32;;;12.38;;
10315;SDS011;5203;48.976;8.306;2022-08-18T16:39:54;14.18;;;12.90;;
10315;SDS011;5203;48.976;8.306;2022-08-18T16:42:20;12.82;;;11.73;;
10315;SDS011;5203;48.976;8.306;2022-08-18T16:44:46;12.50;;;11.57;;
10315;SDS011;5203;48.976;8.306;2022-08-18T16:47:11;12.50;;;11.50;;
10315;SDS011;5203;48.976;8.306;2022-08-18T16:49:45;11.93;;;11.02;;
10315;SDS011;5203;48.976;8.306;2022-08-18T16:52:12;11.63;;;10.73;;
10315;SDS011;5203;48.976;8.306;2022-08-18T16:54:39;12.82;;;11.77;;
10315;SDS011;5203;48.976;8.306;2022-08-18T16:57:06;12.73;;;11.90;;
10315;SDS011;5203;48.976;8.306;2022-08-18T16:59:31;11.73;;;10.93;;
10315;SDS011;5203;48.976;8.306;2022-08-18T17:02:15;11.88;;;10.98;;
10315;SDS011;5203;48.976;8.306;2022-08-18T17:05:01;10.82;;;10.07;;
10315;SDS011;5203;48.976;8.306;2022-08-18T17:07:32;11.38;;;10.57;;
10315;SDS011;5203;48.976;8.306;2022-08-18T17:09:58;11.52;;;10.70;;
10315;SDS011;5203;48.976;8.306;2022-08-18T17:12:25;10.68;;;9.95;;
10315;SDS011;5203;48.976;8.306;2022-08-18T17:14:53;11.90;;;11.00;;
10315;SDS011;5203;48.976;8.306;2022-08-18T17:17:20;11.45;;;10.70;;
10315;SDS011;5203;48.976;8.306;2022-08-18T17:19:47;11.88;;;10.98;;
10315;SDS011;5203;48.976;8.306;2022-08-18T17:22:14;11.85;;;10.70;;
10315;SDS011;5203;48.976;8.306;2022-08-18T17:24:40;11.48;;;10.50;;
10315;SDS011;5203;48.976;8.306;2022-08-18T17:27:17;11.60;;;10.90;;
10315;SDS011;5203;48.976;8.306;2022-08-18T17:29:46;12.20;;;11.30;;
10315;SDS011;5203;48.976;8.306;2022-08-18T17:35:00;11.80;;;11.00;;
10315;SDS011;5203;48.976;8.306;2022-08-18T17:37:30;11.93;;;10.93;;
10315;SDS011;5203;48.976;8.306;2022-08-18T17:39:58;11.45;;;10.65;;
10315;SDS011;5203;48.976;8.306;2022-08-18T17:42:37;11.38;;;10.48;;
10315;SDS011;5203;48.976;8.306;2022-08-18T17:45:05;12.60;;;11.63;;
10315;SDS011;5203;48.976;8.306;2022-08-18T17:47:39;12.65;;;11.75;;
10315;SDS011;5203;48.976;8.306;2022-08-18T17:50:12;11.40;;;10.60;;
10315;SDS011;5203;48.976;8.306;2022-08-18T17:53:12;12.13;;;11.35;;
10315;SDS011;5203;48.976;8.306;2022-08-18T17:56:15;12.40;;;11.55;;
10315;SDS011;5203;48.976;8.306;2022-08-18T17:58:38;12.60;;;11.70;;
10315;SDS011;5203;48.976;8.306;2022-08-18T18:01:10;12.55;;;11.75;;